createdAt,value
2022-09-25T00:02:23.483Z,22.33
2022-09-25T00:04:53.750Z,29.05
2022-09-25T00:07:22.905Z,24.42
2022-09-25T00:09:50.051Z,19.73
2022-09-25T00:12:20.020Z,19.98
2022-09-25T00:14:50.623Z,21.23
2022-09-25T00:17:17.973Z,21.00
2022-09-25T00:19:51.883Z,23.63
2022-09-25T00:22:26.644Z,21.70
2022-09-25T00:24:54.909Z,19.42
2022-09-25T00:27:23.096Z,22.30
2022-09-25T00:29:56.323Z,20.70
2022-09-25T00:32:26.648Z,19.67
2022-09-25T00:34:59.870Z,18.52
2022-09-25T00:37:29.043Z,21.00
2022-09-25T00:39:57.365Z,19.40
2022-09-25T00:42:25.916Z,20.10
2022-09-25T00:45:07.094Z,19.65
2022-09-25T00:47:52.563Z,20.02
2022-09-25T00:50:36.838Z,21.13
2022-09-25T00:53:13.388Z,21.73
2022-09-25T00:55:44.513Z,20.77
2022-09-25T00:58:18.049Z,22.02
2022-09-25T01:00:45.880Z,22.40
2022-09-25T01:03:14.707Z,21.65
2022-09-25T01:05:49.844Z,20.67
2022-09-25T01:08:24.400Z,20.40
2022-09-25T01:10:52.566Z,22.45
2022-09-25T01:13:20.699Z,21.00
2022-09-25T01:16:00.311Z,21.55
2022-09-25T01:19:06.278Z,20.85
2022-09-25T01:21:46.484Z,21.65
2022-09-25T01:24:29.624Z,22.83
2022-09-25T01:27:25.549Z,27.27
2022-09-25T01:30:10.880Z,21.45
2022-09-25T01:33:08.227Z,21.20
2022-09-25T01:36:02.204Z,27.38
2022-09-25T01:38:47.545Z,24.10
2022-09-25T01:41:57.789Z,20.52
2022-09-25T01:44:31.707Z,26.65
2022-09-25T01:47:07.177Z,20.02
2022-09-25T01:49:45.019Z,19.73
2022-09-25T01:52:26.260Z,19.75
2022-09-25T01:55:05.326Z,19.77
2022-09-25T01:57:51.929Z,20.00
2022-09-25T02:00:22.211Z,19.25
2022-09-25T02:02:57.782Z,23.25
2022-09-25T02:05:39.864Z,20.30
2022-09-25T02:08:18.146Z,21.00
2022-09-25T02:10:51.683Z,22.35
2022-09-25T02:13:29.985Z,33.72
2022-09-25T02:16:01.182Z,19.33
2022-09-25T02:19:03.162Z,20.17
2022-09-25T02:21:47.044Z,27.15
2022-09-25T02:26:47.401Z,23.15
2022-09-25T02:29:23.640Z,23.50
2022-09-25T02:31:53.984Z,22.70
2022-09-25T02:34:22.099Z,21.52
2022-09-25T02:36:49.583Z,22.48
2022-09-25T02:39:21.324Z,21.38
2022-09-25T02:42:12.809Z,20.77
2022-09-25T02:45:11.776Z,20.85
2022-09-25T02:48:08.973Z,20.77
2022-09-25T02:50:57.154Z,19.23
2022-09-25T02:53:33.029Z,20.85
2022-09-25T02:56:06.851Z,20.45
2022-09-25T02:58:51.301Z,21.25
2022-09-25T03:01:23.552Z,20.15
2022-09-25T03:03:54.130Z,21.48
2022-09-25T03:06:24.798Z,20.90
2022-09-25T03:08:57.037Z,22.08
2022-09-25T03:11:30.417Z,21.48
2022-09-25T03:14:01.732Z,21.50
2022-09-25T03:16:47.314Z,22.23
2022-09-25T03:19:21.737Z,22.20
2022-09-25T03:21:49.245Z,22.50
2022-09-25T03:24:22.970Z,21.90
2022-09-25T03:29:23.995Z,22.70
2022-09-25T03:31:54.232Z,21.42
2022-09-25T03:34:23.122Z,23.08
2022-09-25T03:36:50.188Z,23.20
2022-09-25T03:39:19.846Z,24.25
2022-09-25T03:41:48.155Z,34.65
2022-09-25T03:44:15.492Z,23.98
2022-09-25T03:46:44.568Z,25.17
2022-09-25T03:49:14.135Z,40.38
2022-09-25T03:51:42.357Z,32.13
2022-09-25T03:54:10.423Z,22.83
2022-09-25T03:56:38.666Z,24.10
2022-09-25T03:59:05.821Z,21.63
2022-09-25T04:01:34.977Z,21.77
2022-09-25T04:04:03.567Z,21.38
2022-09-25T04:06:32.827Z,21.45
2022-09-25T04:09:00.985Z,22.45
2022-09-25T04:11:28.613Z,21.85
2022-09-25T04:13:57.325Z,22.05
2022-09-25T04:16:28.186Z,21.70
2022-09-25T04:18:55.810Z,22.20
2022-09-25T04:21:24.864Z,21.17
2022-09-25T04:24:15.247Z,24.25
2022-09-25T04:26:44.973Z,22.52
2022-09-25T04:29:18.748Z,21.30
2022-09-25T04:32:05.901Z,22.92
2022-09-25T04:34:35.262Z,23.08
2022-09-25T04:37:04.437Z,29.52
2022-09-25T04:39:31.463Z,30.65
2022-09-25T04:42:05.462Z,26.88
2022-09-25T04:44:34.482Z,24.98
2022-09-25T04:47:01.513Z,24.10
2022-09-25T04:49:31.730Z,26.55
2022-09-25T04:52:02.088Z,27.02
2022-09-25T04:54:31.899Z,28.65
2022-09-25T04:56:59.940Z,27.30
2022-09-25T04:59:27.127Z,27.80
2022-09-25T05:01:55.232Z,27.77
2022-09-25T05:04:24.587Z,28.45
2022-09-25T05:06:56.625Z,30.10
2022-09-25T05:09:28.723Z,27.90
2022-09-25T05:11:55.708Z,28.10
2022-09-25T05:14:26.193Z,26.63
2022-09-25T05:16:54.201Z,27.40
2022-09-25T05:19:23.243Z,26.10
2022-09-25T05:21:53.306Z,29.15
2022-09-25T05:24:21.339Z,27.60
2022-09-25T05:26:49.543Z,28.58
2022-09-25T05:29:16.529Z,29.67
2022-09-25T05:31:47.092Z,26.63
2022-09-25T05:34:19.915Z,26.67
2022-09-25T05:36:46.920Z,27.17
2022-09-25T05:39:14.764Z,27.90
2022-09-25T05:41:44.034Z,28.95
2022-09-25T05:44:12.412Z,31.13
2022-09-25T05:46:40.698Z,32.83
2022-09-25T05:49:09.003Z,32.75
2022-09-25T05:51:37.021Z,34.20
2022-09-25T05:54:06.110Z,34.60
2022-09-25T05:56:45.241Z,37.15
2022-09-25T05:59:12.389Z,36.05
2022-09-25T06:01:41.652Z,35.35
2022-09-25T06:04:10.463Z,36.13
2022-09-25T06:06:40.022Z,35.55
2022-09-25T06:09:07.070Z,37.65
2022-09-25T06:11:47.619Z,37.08
2022-09-25T06:14:17.993Z,38.13
2022-09-25T06:16:47.948Z,40.70
2022-09-25T06:19:14.902Z,45.42
2022-09-25T06:21:42.134Z,45.28
2022-09-25T06:24:12.509Z,48.00
2022-09-25T06:26:41.140Z,46.60
2022-09-25T06:29:08.164Z,46.92
2022-09-25T06:31:35.558Z,46.45
2022-09-25T06:34:02.671Z,50.03
2022-09-25T06:36:29.816Z,48.60
2022-09-25T06:38:56.819Z,48.00
2022-09-25T06:41:25.944Z,47.15
2022-09-25T06:43:58.014Z,47.45
2022-09-25T06:46:26.069Z,46.40
2022-09-25T06:48:55.796Z,45.15
2022-09-25T06:51:25.335Z,43.72
2022-09-25T06:53:56.064Z,42.28
2022-09-25T06:56:50.421Z,60.03
2022-09-25T07:01:48.590Z,47.85
2022-09-25T07:04:23.046Z,41.72
2022-09-25T07:06:58.804Z,42.30
2022-09-25T07:09:31.687Z,41.10
2022-09-25T07:12:00.032Z,43.95
2022-09-25T07:14:34.039Z,43.25
2022-09-25T07:17:01.082Z,43.33
2022-09-25T07:19:28.479Z,42.03
2022-09-25T07:21:57.441Z,41.75
2022-09-25T07:24:26.583Z,41.35
2022-09-25T07:26:53.689Z,41.30
2022-09-25T07:29:20.848Z,41.42
2022-09-25T07:31:54.300Z,38.22
2022-09-25T07:34:22.378Z,33.75
2022-09-25T07:36:53.121Z,32.38
2022-09-25T07:39:20.194Z,30.13
2022-09-25T07:41:59.817Z,29.58
2022-09-25T07:44:29.468Z,30.35
2022-09-25T07:49:33.119Z,27.02
2022-09-25T07:52:00.816Z,26.42
2022-09-25T07:54:31.423Z,25.25
2022-09-25T07:57:05.418Z,24.30
2022-09-25T07:59:32.663Z,36.28
2022-09-25T08:02:01.016Z,24.85
2022-09-25T08:04:33.868Z,27.45
2022-09-25T08:07:01.220Z,21.53
2022-09-25T08:09:28.334Z,22.95
2022-09-25T08:12:02.917Z,19.85
2022-09-25T08:14:30.124Z,19.67
2022-09-25T08:17:02.937Z,20.75
2022-09-25T08:19:30.180Z,24.92
2022-09-25T08:22:27.240Z,20.85
2022-09-25T08:24:54.365Z,15.23
2022-09-25T08:27:41.179Z,16.30
2022-09-25T08:30:12.352Z,15.82
2022-09-25T08:32:41.386Z,15.98
2022-09-25T08:35:15.056Z,16.40
2022-09-25T08:37:43.991Z,15.80
2022-09-25T08:40:19.145Z,15.90
2022-09-25T08:42:51.520Z,15.60
2022-09-25T08:45:45.157Z,15.43
2022-09-25T08:48:41.156Z,14.52
2022-09-25T08:51:10.060Z,16.45
2022-09-25T08:53:39.272Z,15.20
2022-09-25T08:56:20.517Z,16.20
2022-09-25T08:59:23.513Z,14.90
2022-09-25T09:01:56.970Z,13.85
2022-09-25T09:04:38.762Z,14.57
2022-09-25T09:07:27.884Z,14.60
2022-09-25T09:10:09.480Z,15.27
2022-09-25T09:12:43.227Z,14.95
2022-09-25T09:17:43.868Z,12.05
2022-09-25T09:20:34.810Z,11.27
2022-09-25T09:23:02.901Z,11.60
2022-09-25T09:26:06.861Z,10.75
2022-09-25T09:28:39.726Z,9.82
2022-09-25T09:31:18.979Z,10.47
2022-09-25T09:34:05.493Z,10.57
2022-09-25T09:37:03.533Z,11.30
2022-09-25T09:39:42.600Z,9.55
2022-09-25T09:42:32.703Z,8.30
2022-09-25T09:45:14.323Z,9.07
2022-09-25T09:48:06.694Z,8.43
2022-09-25T09:50:52.789Z,8.85
2022-09-25T09:53:36.074Z,8.52
2022-09-25T09:56:15.060Z,8.18
2022-09-25T09:59:07.379Z,7.10
2022-09-25T10:01:42.440Z,7.53
2022-09-25T10:04:30.763Z,7.25
2022-09-25T10:07:05.178Z,5.80
2022-09-25T10:09:32.635Z,6.32
2022-09-25T10:12:25.990Z,6.38
2022-09-25T10:14:57.034Z,6.60
2022-09-25T10:17:48.539Z,5.90
2022-09-25T10:20:21.085Z,6.35
2022-09-25T10:22:53.778Z,7.15
2022-09-25T10:25:39.522Z,7.03
2022-09-25T10:28:36.268Z,5.35
2022-09-25T10:31:07.843Z,4.32
2022-09-25T10:33:37.671Z,4.85
2022-09-25T10:36:12.049Z,3.95
2022-09-25T10:38:48.634Z,3.67
2022-09-25T10:41:26.736Z,3.50
2022-09-25T10:44:01.406Z,3.72
2022-09-25T10:46:51.260Z,4.78
2022-09-25T10:49:43.645Z,4.93
2022-09-25T10:52:14.994Z,4.82
2022-09-25T10:54:45.712Z,5.28
2022-09-25T10:57:35.792Z,3.20
2022-09-25T11:00:30.626Z,2.70
2022-09-25T11:03:03.249Z,2.65
2022-09-25T11:05:38.087Z,2.90
2022-09-25T11:08:09.473Z,2.50
2022-09-25T11:10:58.939Z,3.15
2022-09-25T11:13:55.661Z,2.50
2022-09-25T11:16:45.825Z,3.00
2022-09-25T11:19:19.414Z,2.70
2022-09-25T11:22:14.077Z,2.40
2022-09-25T11:25:17.906Z,2.72
2022-09-25T11:28:07.249Z,2.60
2022-09-25T11:30:50.058Z,2.33
2022-09-25T11:33:53.274Z,2.50
2022-09-25T11:36:32.138Z,2.22
2022-09-25T11:39:33.904Z,5.22
2022-09-25T11:42:19.046Z,5.05
2022-09-25T11:44:57.739Z,2.97
2022-09-25T11:47:54.380Z,3.85
2022-09-25T11:50:44.894Z,2.20
2022-09-25T11:53:46.397Z,2.50
2022-09-25T11:56:20.298Z,2.72
2022-09-25T11:59:05.341Z,1.90
2022-09-25T12:01:45.583Z,3.70
2022-09-25T12:04:46.854Z,2.40
2022-09-25T12:07:39.010Z,2.30
2022-09-25T12:10:26.723Z,2.35
2022-09-25T12:13:12.549Z,2.00
2022-09-25T12:16:03.698Z,4.00
2022-09-25T12:18:34.420Z,2.30
2022-09-25T12:21:15.512Z,2.30
2022-09-25T12:23:56.277Z,2.33
2022-09-25T12:26:34.844Z,2.10
2022-09-25T12:29:26.261Z,2.55
2022-09-25T12:32:15.187Z,3.35
2022-09-25T12:35:15.376Z,3.70
2022-09-25T12:38:02.939Z,2.40
2022-09-25T12:40:44.405Z,2.40
2022-09-25T12:43:24.563Z,2.38
2022-09-25T12:46:14.191Z,2.42
2022-09-25T12:49:02.864Z,2.80
2022-09-25T12:51:40.732Z,2.17
2022-09-25T12:54:34.913Z,2.60
2022-09-25T12:59:46.567Z,2.20
2022-09-25T13:02:49.328Z,2.25
2022-09-25T13:05:26.176Z,2.35
2022-09-25T13:08:13.354Z,2.17
2022-09-25T13:10:48.857Z,3.60
2022-09-25T13:13:26.970Z,4.35
2022-09-25T13:16:01.925Z,1.95
2022-09-25T13:18:36.395Z,5.18
2022-09-25T13:21:29.832Z,2.35
2022-09-25T13:24:00.346Z,3.40
2022-09-25T13:26:47.139Z,1.90
2022-09-25T13:29:31.045Z,2.35
2022-09-25T13:32:14.662Z,2.42
2022-09-25T13:34:43.236Z,10.52
2022-09-25T13:37:15.631Z,4.45
2022-09-25T13:40:09.199Z,2.42
2022-09-25T13:42:46.811Z,2.33
2022-09-25T13:45:26.227Z,7.47
2022-09-25T13:48:07.255Z,1.90
2022-09-25T13:50:38.954Z,2.38
2022-09-25T13:53:18.349Z,2.10
2022-09-25T13:55:57.666Z,2.30
2022-09-25T13:58:32.601Z,1.98
2022-09-25T14:01:17.819Z,2.00
2022-09-25T14:03:47.854Z,2.38
2022-09-25T14:06:25.060Z,2.67
2022-09-25T14:08:56.398Z,2.30
2022-09-25T14:11:30.051Z,2.17
2022-09-25T14:14:13.844Z,1.83
2022-09-25T14:17:01.338Z,2.05
2022-09-25T14:19:33.111Z,1.80
2022-09-25T14:22:04.575Z,2.20
2022-09-25T14:24:35.775Z,2.10
2022-09-25T14:27:24.463Z,2.25
2022-09-25T14:29:51.809Z,2.20
2022-09-25T14:32:55.624Z,2.38
2022-09-25T14:35:46.857Z,2.17
2022-09-25T14:38:55.791Z,2.70
2022-09-25T14:41:44.244Z,2.13
2022-09-25T14:44:26.062Z,2.00
2022-09-25T14:46:56.581Z,2.55
2022-09-25T14:49:30.966Z,2.08
2022-09-25T14:52:09.494Z,2.40
2022-09-25T14:54:46.889Z,2.92
2022-09-25T14:57:23.326Z,3.20
2022-09-25T14:59:56.261Z,3.05
2022-09-25T15:02:43.299Z,2.60
2022-09-25T15:05:28.064Z,2.60
2022-09-25T15:08:03.047Z,2.78
2022-09-25T15:10:37.271Z,2.00
2022-09-25T15:13:21.164Z,2.30
2022-09-25T15:16:12.275Z,2.17
2022-09-25T15:18:46.044Z,2.30
2022-09-25T15:21:31.371Z,1.92
2022-09-25T15:24:06.168Z,2.03
2022-09-25T15:26:41.041Z,2.20
2022-09-25T15:29:18.665Z,2.28
2022-09-25T15:31:51.083Z,2.67
2022-09-25T15:34:25.097Z,2.53
2022-09-25T15:41:57.148Z,2.53
2022-09-25T15:44:32.229Z,3.13
2022-09-25T15:47:31.205Z,2.67
2022-09-25T15:50:18.381Z,2.85
2022-09-25T15:52:51.066Z,2.50
2022-09-25T15:55:22.400Z,2.78
2022-09-25T15:58:04.960Z,2.70
2022-09-25T16:00:50.869Z,3.08
2022-09-25T16:03:50.298Z,2.90
2022-09-25T16:06:23.479Z,2.75
2022-09-25T16:09:08.152Z,2.83
2022-09-25T16:11:35.269Z,2.92
2022-09-25T16:14:32.213Z,3.00
2022-09-25T16:17:29.013Z,3.00
2022-09-25T16:20:10.162Z,4.28
2022-09-25T16:22:49.788Z,8.20
2022-09-25T16:25:32.471Z,12.18
2022-09-25T16:28:16.391Z,8.90
2022-09-25T16:30:50.388Z,15.90
2022-09-25T16:33:33.510Z,8.60
2022-09-25T16:36:16.981Z,3.38
2022-09-25T16:39:12.961Z,6.00
2022-09-25T16:41:48.927Z,5.70
2022-09-25T16:44:32.928Z,5.70
2022-09-25T16:47:28.766Z,5.20
2022-09-25T16:49:58.982Z,4.40
2022-09-25T16:52:29.521Z,5.38
2022-09-25T16:54:57.613Z,4.78
2022-09-25T16:57:28.379Z,5.80
2022-09-25T16:59:56.296Z,5.63
2022-09-25T17:02:37.584Z,4.80
2022-09-25T17:05:11.753Z,6.18
2022-09-25T17:07:54.126Z,8.15
2022-09-25T17:10:26.186Z,8.23
2022-09-25T17:12:56.551Z,8.20
2022-09-25T17:15:34.093Z,9.00
2022-09-25T17:18:02.308Z,9.52
2022-09-25T17:20:31.797Z,9.40
2022-09-25T17:23:06.340Z,8.13
2022-09-25T17:25:49.588Z,7.13
2022-09-25T17:28:17.475Z,6.80
2022-09-25T17:30:47.656Z,6.15
2022-09-25T17:33:17.531Z,6.43
2022-09-25T17:36:13.797Z,8.45
2022-09-25T17:38:41.995Z,20.70
2022-09-25T17:41:26.332Z,26.00
2022-09-25T17:43:53.542Z,23.58
2022-09-25T17:46:45.474Z,11.48
2022-09-25T17:49:21.825Z,13.85
2022-09-25T17:51:57.955Z,8.80
2022-09-25T17:54:29.375Z,8.40
2022-09-25T17:57:02.488Z,7.05
2022-09-25T17:59:43.933Z,7.97
2022-09-25T18:02:16.905Z,8.40
2022-09-25T18:04:46.633Z,8.82
2022-09-25T18:07:16.343Z,8.27
2022-09-25T18:09:45.949Z,8.90
2022-09-25T18:12:24.099Z,9.02
2022-09-25T18:15:11.790Z,9.02
2022-09-25T18:17:40.751Z,12.27
2022-09-25T18:20:33.200Z,11.57
2022-09-25T18:23:02.121Z,9.45
2022-09-25T18:25:29.769Z,11.73
2022-09-25T18:27:57.177Z,6.78
2022-09-25T18:30:25.992Z,7.05
2022-09-25T18:32:54.782Z,10.52
2022-09-25T18:35:23.325Z,11.40
2022-09-25T18:38:05.649Z,102.80
2022-09-25T18:43:12.326Z,11.38
2022-09-25T18:45:43.038Z,29.17
2022-09-25T18:48:11.094Z,11.88
2022-09-25T18:50:54.873Z,10.27
2022-09-25T18:53:30.109Z,9.52
2022-09-25T18:56:05.315Z,8.57
2022-09-25T18:58:34.509Z,8.75
2022-09-25T19:01:10.015Z,13.85
2022-09-25T19:03:40.777Z,26.77
2022-09-25T19:06:08.197Z,29.60
2022-09-25T19:08:37.556Z,23.65
2022-09-25T19:11:15.974Z,18.63
2022-09-25T19:13:43.727Z,11.13
2022-09-25T19:16:11.602Z,13.63
2022-09-25T19:18:38.744Z,13.88
2022-09-25T19:21:05.834Z,16.38
2022-09-25T19:23:37.414Z,15.35
2022-09-25T19:26:06.019Z,12.98
2022-09-25T19:28:35.634Z,14.68
2022-09-25T19:31:07.276Z,13.55
2022-09-25T19:33:37.305Z,14.07
2022-09-25T19:36:15.055Z,16.65
2022-09-25T19:38:43.648Z,14.57
2022-09-25T19:41:19.407Z,14.23
2022-09-25T19:43:59.307Z,14.13
2022-09-25T19:46:28.681Z,13.23
2022-09-25T19:48:55.895Z,12.18
2022-09-25T19:51:28.833Z,13.00
2022-09-25T19:53:58.889Z,15.15
2022-09-25T19:56:27.249Z,18.48
2022-09-25T19:59:05.889Z,14.25
2022-09-25T20:01:33.745Z,18.67
2022-09-25T20:04:04.442Z,15.88
2022-09-25T20:06:56.637Z,13.57
2022-09-25T20:09:42.376Z,13.95
2022-09-25T20:12:11.951Z,15.13
2022-09-25T20:14:39.059Z,15.45
2022-09-25T20:17:23.447Z,15.52
2022-09-25T20:20:03.027Z,16.13
2022-09-25T20:22:33.904Z,18.25
2022-09-25T20:25:19.474Z,17.58
2022-09-25T20:27:52.727Z,17.20
2022-09-25T20:30:21.507Z,16.10
2022-09-25T20:32:56.094Z,12.00
2022-09-25T20:35:30.603Z,13.60
2022-09-25T20:37:57.678Z,16.52
2022-09-25T20:40:24.925Z,12.63
2022-09-25T20:42:54.182Z,11.10
2022-09-25T20:45:28.272Z,16.92
2022-09-25T20:47:55.410Z,13.65
2022-09-25T20:50:37.552Z,12.20
2022-09-25T20:53:05.641Z,11.02
2022-09-25T20:55:38.258Z,11.27
2022-09-25T20:58:11.240Z,12.40
2022-09-25T21:00:39.376Z,13.18
2022-09-25T21:03:35.718Z,12.48
2022-09-25T21:06:18.932Z,14.50
2022-09-25T21:08:56.401Z,11.93
2022-09-25T21:11:31.041Z,10.88
2022-09-25T21:14:03.038Z,16.45
2022-09-25T21:16:33.513Z,10.80
2022-09-25T21:19:05.004Z,15.65
2022-09-25T21:21:42.373Z,12.23
2022-09-25T21:24:18.401Z,10.25
2022-09-25T21:26:50.933Z,10.40
2022-09-25T21:29:24.147Z,12.63
2022-09-25T21:31:55.519Z,14.63
2022-09-25T21:34:34.872Z,16.33
2022-09-25T21:37:02.963Z,19.02
2022-09-25T21:39:31.006Z,19.30
2022-09-25T21:44:34.856Z,14.50
2022-09-25T21:47:12.869Z,14.23
2022-09-25T21:49:46.756Z,13.85
2022-09-25T21:52:17.864Z,14.73
2022-09-25T21:54:45.891Z,13.20
2022-09-25T21:57:15.973Z,12.85
2022-09-25T21:59:43.017Z,12.15
2022-09-25T22:02:10.299Z,11.88
2022-09-25T22:04:40.286Z,12.75
2022-09-25T22:07:14.351Z,12.52
2022-09-25T22:09:43.447Z,11.70
2022-09-25T22:12:10.607Z,11.30
2022-09-25T22:14:37.736Z,12.23
2022-09-25T22:17:04.823Z,12.30
2022-09-25T22:19:32.087Z,13.13
2022-09-25T22:21:59.791Z,12.50
2022-09-25T22:24:27.440Z,12.02
2022-09-25T22:26:55.955Z,12.40
2022-09-25T22:29:23.731Z,11.85
2022-09-25T22:31:51.185Z,14.18
2022-09-25T22:34:28.936Z,16.65
2022-09-25T22:36:59.952Z,12.65
2022-09-25T22:39:28.865Z,12.90
2022-09-25T22:41:57.166Z,24.23
2022-09-25T22:44:24.767Z,18.42
2022-09-25T22:46:55.247Z,13.30
2022-09-25T22:49:22.629Z,12.77
2022-09-25T22:51:58.709Z,12.85
2022-09-25T22:54:25.771Z,12.80
2022-09-25T22:56:54.884Z,13.68
2022-09-25T22:59:22.866Z,12.85
2022-09-25T23:01:52.769Z,12.23
2022-09-25T23:04:24.726Z,12.85
2022-09-25T23:07:05.298Z,12.50
2022-09-25T23:09:35.432Z,13.32
2022-09-25T23:12:03.656Z,14.18
2022-09-25T23:14:32.119Z,13.95
2022-09-25T23:17:03.471Z,14.88
2022-09-25T23:19:31.705Z,15.15
2022-09-25T23:21:58.975Z,16.38
2022-09-25T23:24:26.752Z,15.27
2022-09-25T23:26:55.862Z,15.43
2022-09-25T23:29:25.608Z,14.48
2022-09-25T23:31:55.743Z,14.25
2022-09-25T23:34:32.517Z,15.65
2022-09-25T23:37:18.568Z,17.02
2022-09-25T23:39:45.528Z,18.38
2022-09-25T23:42:12.438Z,30.42
2022-09-25T23:44:51.557Z,30.45
2022-09-25T23:47:23.619Z,16.80
2022-09-25T23:49:50.750Z,14.65
2022-09-25T23:52:20.948Z,13.27
2022-09-25T23:54:49.168Z,17.88
2022-09-25T23:57:17.132Z,23.35
2022-09-25T23:59:50.046Z,14.25
